sensor_id;sensor_type;location;lat;lon;timestamp;P1;durP1;ratioP1;P2;durP2;ratioP2
61096;SDS011;46977;50.936;6.908;2022-11-15T00:00:46;32.33;;;12.77;;
61096;SDS011;46977;50.936;6.908;2022-11-15T00:04:07;32.60;;;13.25;;
61096;SDS011;46977;50.936;6.908;2022-11-15T00:07:27;30.58;;;12.38;;
61096;SDS011;46977;50.936;6.908;2022-11-15T00:11:11;37.03;;;15.13;;
61096;SDS011;46977;50.936;6.908;2022-11-15T00:14:32;34.15;;;15.07;;
61096;SDS011;46977;50.936;6.908;2022-11-15T00:17:54;31.27;;;14.23;;
61096;SDS011;46977;50.936;6.908;2022-11-15T00:21:15;38.22;;;15.15;;
61096;SDS011;46977;50.936;6.908;2022-11-15T00:27:59;31.55;;;13.65;;
61096;SDS011;46977;50.936;6.908;2022-11-15T00:31:20;37.72;;;14.77;;
61096;SDS011;46977;50.936;6.908;2022-11-15T00:34:41;35.63;;;14.32;;
61096;SDS011;46977;50.936;6.908;2022-11-15T00:38:01;38.03;;;14.95;;
61096;SDS011;46977;50.936;6.908;2022-11-15T00:41:22;32.88;;;13.75;;
61096;SDS011;46977;50.936;6.908;2022-11-15T00:44:44;29.25;;;12.77;;
61096;SDS011;46977;50.936;6.908;2022-11-15T00:51:25;34.67;;;13.98;;
61096;SDS011;46977;50.936;6.908;2022-11-15T00:54:46;33.10;;;14.48;;
61096;SDS011;46977;50.936;6.908;2022-11-15T00:58:07;34.67;;;13.70;;
61096;SDS011;46977;50.936;6.908;2022-11-15T01:01:29;26.67;;;11.95;;
61096;SDS011;46977;50.936;6.908;2022-11-15T01:04:50;32.05;;;12.93;;
61096;SDS011;46977;50.936;6.908;2022-11-15T01:08:11;35.22;;;13.43;;
61096;SDS011;46977;50.936;6.908;2022-11-15T01:11:33;28.52;;;13.07;;
61096;SDS011;46977;50.936;6.908;2022-11-15T01:14:54;24.65;;;11.07;;
61096;SDS011;46977;50.936;6.908;2022-11-15T01:18:16;32.33;;;12.52;;
61096;SDS011;46977;50.936;6.908;2022-11-15T01:24:57;27.73;;;12.15;;
61096;SDS011;46977;50.936;6.908;2022-11-15T01:28:18;27.13;;;12.70;;
61096;SDS011;46977;50.936;6.908;2022-11-15T01:31:39;25.98;;;11.98;;
61096;SDS011;46977;50.936;6.908;2022-11-15T01:35:02;26.60;;;11.60;;
61096;SDS011;46977;50.936;6.908;2022-11-15T01:38:23;22.35;;;11.30;;
61096;SDS011;46977;50.936;6.908;2022-11-15T01:41:44;23.75;;;10.85;;
61096;SDS011;46977;50.936;6.908;2022-11-15T01:45:05;27.80;;;11.57;;
61096;SDS011;46977;50.936;6.908;2022-11-15T01:51:50;22.00;;;9.95;;
61096;SDS011;46977;50.936;6.908;2022-11-15T01:55:14;23.23;;;11.50;;
61096;SDS011;46977;50.936;6.908;2022-11-15T01:58:38;22.73;;;11.10;;
61096;SDS011;46977;50.936;6.908;2022-11-15T02:01:59;22.30;;;11.77;;
61096;SDS011;46977;50.936;6.908;2022-11-15T02:05:20;17.40;;;9.60;;
61096;SDS011;46977;50.936;6.908;2022-11-15T02:08:42;23.02;;;10.85;;
61096;SDS011;46977;50.936;6.908;2022-11-15T02:12:04;19.88;;;10.73;;
61096;SDS011;46977;50.936;6.908;2022-11-15T02:15:26;18.65;;;8.98;;
61096;SDS011;46977;50.936;6.908;2022-11-15T02:18:52;17.80;;;9.43;;
61096;SDS011;46977;50.936;6.908;2022-11-15T02:22:20;17.10;;;8.70;;
61096;SDS011;46977;50.936;6.908;2022-11-15T02:25:52;18.70;;;10.15;;
61096;SDS011;46977;50.936;6.908;2022-11-15T02:29:19;17.75;;;9.52;;
61096;SDS011;46977;50.936;6.908;2022-11-15T02:32:47;20.85;;;10.02;;
61096;SDS011;46977;50.936;6.908;2022-11-15T02:36:12;19.88;;;9.95;;
61096;SDS011;46977;50.936;6.908;2022-11-15T02:39:37;15.45;;;9.15;;
61096;SDS011;46977;50.936;6.908;2022-11-15T02:43:04;20.33;;;9.73;;
61096;SDS011;46977;50.936;6.908;2022-11-15T02:46:47;19.17;;;8.95;;
61096;SDS011;46977;50.936;6.908;2022-11-15T02:50:31;17.38;;;9.77;;
61096;SDS011;46977;50.936;6.908;2022-11-15T02:53:53;16.83;;;8.80;;
61096;SDS011;46977;50.936;6.908;2022-11-15T02:57:16;13.68;;;8.43;;
61096;SDS011;46977;50.936;6.908;2022-11-15T03:00:40;14.82;;;8.07;;
61096;SDS011;46977;50.936;6.908;2022-11-15T03:04:09;12.93;;;7.65;;
61096;SDS011;46977;50.936;6.908;2022-11-15T03:07:42;14.23;;;6.82;;
61096;SDS011;46977;50.936;6.908;2022-11-15T03:11:07;14.98;;;7.65;;
61096;SDS011;46977;50.936;6.908;2022-11-15T03:14:30;9.68;;;6.43;;
61096;SDS011;46977;50.936;6.908;2022-11-15T03:17:55;12.23;;;6.82;;
61096;SDS011;46977;50.936;6.908;2022-11-15T03:21:18;12.75;;;7.25;;
61096;SDS011;46977;50.936;6.908;2022-11-15T03:24:41;12.95;;;6.35;;
61096;SDS011;46977;50.936;6.908;2022-11-15T03:28:04;8.45;;;6.07;;
61096;SDS011;46977;50.936;6.908;2022-11-15T03:31:28;9.93;;;5.95;;
61096;SDS011;46977;50.936;6.908;2022-11-15T03:35:11;8.10;;;5.70;;
61096;SDS011;46977;50.936;6.908;2022-11-15T03:38:33;11.25;;;5.45;;
61096;SDS011;46977;50.936;6.908;2022-11-15T03:45:22;9.20;;;5.38;;
61096;SDS011;46977;50.936;6.908;2022-11-15T03:48:49;8.02;;;5.30;;
61096;SDS011;46977;50.936;6.908;2022-11-15T03:52:12;9.70;;;5.03;;
61096;SDS011;46977;50.936;6.908;2022-11-15T03:55:32;10.40;;;5.60;;
61096;SDS011;46977;50.936;6.908;2022-11-15T03:58:54;7.32;;;4.72;;
61096;SDS011;46977;50.936;6.908;2022-11-15T04:05:36;9.50;;;4.82;;
61096;SDS011;46977;50.936;6.908;2022-11-15T04:08:57;8.77;;;5.22;;
61096;SDS011;46977;50.936;6.908;2022-11-15T04:12:17;10.73;;;5.70;;
61096;SDS011;46977;50.936;6.908;2022-11-15T04:15:52;10.63;;;5.97;;
61096;SDS011;46977;50.936;6.908;2022-11-15T04:19:13;6.95;;;5.03;;
61096;SDS011;46977;50.936;6.908;2022-11-15T04:22:52;8.32;;;5.78;;
61096;SDS011;46977;50.936;6.908;2022-11-15T04:26:32;8.55;;;5.55;;
61096;SDS011;46977;50.936;6.908;2022-11-15T04:29:53;8.83;;;5.47;;
61096;SDS011;46977;50.936;6.908;2022-11-15T04:33:15;7.80;;;4.57;;
61096;SDS011;46977;50.936;6.908;2022-11-15T04:36:36;7.18;;;4.72;;
61096;SDS011;46977;50.936;6.908;2022-11-15T04:40:16;6.80;;;5.07;;
61096;SDS011;46977;50.936;6.908;2022-11-15T04:43:36;10.00;;;4.97;;
61096;SDS011;46977;50.936;6.908;2022-11-15T04:46:57;8.52;;;4.88;;
61096;SDS011;46977;50.936;6.908;2022-11-15T04:50:19;6.55;;;5.07;;
61096;SDS011;46977;50.936;6.908;2022-11-15T04:57:01;7.32;;;4.15;;
61096;SDS011;46977;50.936;6.908;2022-11-15T05:00:21;5.85;;;4.20;;
61096;SDS011;46977;50.936;6.908;2022-11-15T05:03:42;6.93;;;4.35;;
61096;SDS011;46977;50.936;6.908;2022-11-15T05:07:23;6.78;;;5.20;;
61096;SDS011;46977;50.936;6.908;2022-11-15T05:10:44;10.38;;;4.93;;
61096;SDS011;46977;50.936;6.908;2022-11-15T05:14:05;8.35;;;5.05;;
61096;SDS011;46977;50.936;6.908;2022-11-15T05:17:25;8.13;;;4.80;;
61096;SDS011;46977;50.936;6.908;2022-11-15T05:20:46;7.88;;;4.45;;
61096;SDS011;46977;50.936;6.908;2022-11-15T05:24:09;5.97;;;4.55;;
61096;SDS011;46977;50.936;6.908;2022-11-15T05:27:33;7.50;;;5.55;;
61096;SDS011;46977;50.936;6.908;2022-11-15T05:30:59;6.78;;;5.18;;
61096;SDS011;46977;50.936;6.908;2022-11-15T05:34:21;5.72;;;4.53;;
61096;SDS011;46977;50.936;6.908;2022-11-15T05:37:43;5.32;;;4.43;;
61096;SDS011;46977;50.936;6.908;2022-11-15T05:41:05;7.20;;;5.05;;
61096;SDS011;46977;50.936;6.908;2022-11-15T05:44:30;5.10;;;3.92;;
61096;SDS011;46977;50.936;6.908;2022-11-15T05:47:53;7.32;;;4.47;;
61096;SDS011;46977;50.936;6.908;2022-11-15T05:51:14;5.32;;;3.92;;
61096;SDS011;46977;50.936;6.908;2022-11-15T05:54:36;4.15;;;3.70;;
61096;SDS011;46977;50.936;6.908;2022-11-15T05:57:58;5.33;;;3.83;;
61096;SDS011;46977;50.936;6.908;2022-11-15T06:01:20;5.55;;;3.97;;
61096;SDS011;46977;50.936;6.908;2022-11-15T06:04:41;7.72;;;4.43;;
61096;SDS011;46977;50.936;6.908;2022-11-15T06:08:03;5.93;;;4.38;;
61096;SDS011;46977;50.936;6.908;2022-11-15T06:11:26;7.28;;;4.35;;
61096;SDS011;46977;50.936;6.908;2022-11-15T06:14:48;4.75;;;4.10;;
61096;SDS011;46977;50.936;6.908;2022-11-15T06:18:11;6.60;;;3.88;;
61096;SDS011;46977;50.936;6.908;2022-11-15T06:21:41;6.00;;;4.40;;
61096;SDS011;46977;50.936;6.908;2022-11-15T06:35:55;2.00;;;1.80;;
61096;SDS011;46977;50.936;6.908;2022-11-15T06:39:18;1.92;;;1.60;;
61096;SDS011;46977;50.936;6.908;2022-11-15T06:42:39;3.15;;;1.80;;
61096;SDS011;46977;50.936;6.908;2022-11-15T06:46:03;1.92;;;1.55;;
61096;SDS011;46977;50.936;6.908;2022-11-15T06:49:29;2.00;;;1.80;;
61096;SDS011;46977;50.936;6.908;2022-11-15T06:53:13;2.30;;;1.17;;
61096;SDS011;46977;50.936;6.908;2022-11-15T06:56:34;1.40;;;1.13;;
61096;SDS011;46977;50.936;6.908;2022-11-15T06:59:55;1.63;;;1.20;;
61096;SDS011;46977;50.936;6.908;2022-11-15T07:03:16;5.13;;;1.50;;
61096;SDS011;46977;50.936;6.908;2022-11-15T07:06:37;2.47;;;1.27;;
61096;SDS011;46977;50.936;6.908;2022-11-15T07:09:59;2.03;;;1.27;;
61096;SDS011;46977;50.936;6.908;2022-11-15T07:13:20;2.65;;;1.40;;
61096;SDS011;46977;50.936;6.908;2022-11-15T07:16:44;6.05;;;2.65;;
61096;SDS011;46977;50.936;6.908;2022-11-15T07:20:05;1.67;;;1.45;;
61096;SDS011;46977;50.936;6.908;2022-11-15T07:23:27;1.25;;;1.10;;
61096;SDS011;46977;50.936;6.908;2022-11-15T07:26:49;2.07;;;1.10;;
61096;SDS011;46977;50.936;6.908;2022-11-15T07:33:35;2.25;;;1.45;;
61096;SDS011;46977;50.936;6.908;2022-11-15T07:36:56;1.85;;;1.30;;
61096;SDS011;46977;50.936;6.908;2022-11-15T07:40:17;5.40;;;3.08;;
61096;SDS011;46977;50.936;6.908;2022-11-15T07:43:39;6.03;;;1.80;;
61096;SDS011;46977;50.936;6.908;2022-11-15T07:47:00;1.95;;;1.30;;
61096;SDS011;46977;50.936;6.908;2022-11-15T07:50:20;2.90;;;1.02;;
61096;SDS011;46977;50.936;6.908;2022-11-15T07:53:42;0.93;;;0.70;;
61096;SDS011;46977;50.936;6.908;2022-11-15T07:57:03;1.88;;;0.70;;
61096;SDS011;46977;50.936;6.908;2022-11-15T08:00:28;1.40;;;1.15;;
61096;SDS011;46977;50.936;6.908;2022-11-15T08:03:49;3.15;;;1.40;;
61096;SDS011;46977;50.936;6.908;2022-11-15T08:07:10;1.90;;;0.68;;
61096;SDS011;46977;50.936;6.908;2022-11-15T08:10:31;2.22;;;0.73;;
61096;SDS011;46977;50.936;6.908;2022-11-15T08:13:59;1.27;;;0.60;;
61096;SDS011;46977;50.936;6.908;2022-11-15T08:17:21;1.10;;;0.60;;
61096;SDS011;46977;50.936;6.908;2022-11-15T08:20:43;2.55;;;1.00;;
61096;SDS011;46977;50.936;6.908;2022-11-15T08:24:04;1.80;;;1.03;;
61096;SDS011;46977;50.936;6.908;2022-11-15T08:27:25;2.92;;;0.90;;
61096;SDS011;46977;50.936;6.908;2022-11-15T08:30:46;1.00;;;0.80;;
61096;SDS011;46977;50.936;6.908;2022-11-15T08:34:09;2.30;;;0.88;;
61096;SDS011;46977;50.936;6.908;2022-11-15T08:37:30;1.08;;;0.82;;
61096;SDS011;46977;50.936;6.908;2022-11-15T08:40:51;0.80;;;0.70;;
61096;SDS011;46977;50.936;6.908;2022-11-15T08:44:12;1.25;;;0.63;;
61096;SDS011;46977;50.936;6.908;2022-11-15T08:47:33;3.03;;;0.70;;
61096;SDS011;46977;50.936;6.908;2022-11-15T08:50:55;1.70;;;0.50;;
61096;SDS011;46977;50.936;6.908;2022-11-15T08:54:17;1.60;;;0.75;;
61096;SDS011;46977;50.936;6.908;2022-11-15T08:57:37;0.95;;;0.50;;
61096;SDS011;46977;50.936;6.908;2022-11-15T09:00:58;4.80;;;0.63;;
61096;SDS011;46977;50.936;6.908;2022-11-15T09:04:18;1.00;;;0.50;;
61096;SDS011;46977;50.936;6.908;2022-11-15T09:07:41;1.58;;;0.80;;
61096;SDS011;46977;50.936;6.908;2022-11-15T09:11:02;1.13;;;0.40;;
61096;SDS011;46977;50.936;6.908;2022-11-15T09:14:26;1.33;;;0.60;;
61096;SDS011;46977;50.936;6.908;2022-11-15T09:17:50;2.55;;;0.82;;
61096;SDS011;46977;50.936;6.908;2022-11-15T09:21:11;1.35;;;0.50;;
61096;SDS011;46977;50.936;6.908;2022-11-15T09:24:34;0.73;;;0.45;;
61096;SDS011;46977;50.936;6.908;2022-11-15T09:27:55;0.68;;;0.47;;
61096;SDS011;46977;50.936;6.908;2022-11-15T09:31:35;1.40;;;0.60;;
61096;SDS011;46977;50.936;6.908;2022-11-15T09:34:56;1.17;;;0.38;;
61096;SDS011;46977;50.936;6.908;2022-11-15T09:38:17;1.25;;;0.90;;
61096;SDS011;46977;50.936;6.908;2022-11-15T09:41:50;1.42;;;0.50;;
61096;SDS011;46977;50.936;6.908;2022-11-15T09:45:18;1.88;;;0.50;;
61096;SDS011;46977;50.936;6.908;2022-11-15T09:48:51;1.45;;;0.40;;
61096;SDS011;46977;50.936;6.908;2022-11-15T09:52:25;6.68;;;1.60;;
61096;SDS011;46977;50.936;6.908;2022-11-15T09:55:45;1.35;;;0.30;;
61096;SDS011;46977;50.936;6.908;2022-11-15T09:58:53;1.58;;;0.93;;
61096;SDS011;46977;50.936;6.908;2022-11-15T10:02:03;1.65;;;0.50;;
61096;SDS011;46977;50.936;6.908;2022-11-15T10:05:12;2.10;;;0.52;;
61096;SDS011;46977;50.936;6.908;2022-11-15T10:08:30;1.50;;;0.45;;
61096;SDS011;46977;50.936;6.908;2022-11-15T10:11:36;1.58;;;0.40;;
61096;SDS011;46977;50.936;6.908;2022-11-15T10:14:42;2.30;;;0.38;;
61096;SDS011;46977;50.936;6.908;2022-11-15T10:17:50;2.25;;;0.22;;
61096;SDS011;46977;50.936;6.908;2022-11-15T10:21:07;0.60;;;0.40;;
61096;SDS011;46977;50.936;6.908;2022-11-15T10:24:15;1.35;;;0.30;;
61096;SDS011;46977;50.936;6.908;2022-11-15T10:27:21;2.72;;;0.70;;
61096;SDS011;46977;50.936;6.908;2022-11-15T10:30:29;0.43;;;0.30;;
61096;SDS011;46977;50.936;6.908;2022-11-15T10:33:34;1.85;;;0.40;;
61096;SDS011;46977;50.936;6.908;2022-11-15T10:36:39;1.17;;;0.30;;
61096;SDS011;46977;50.936;6.908;2022-11-15T10:40:01;2.97;;;0.40;;
61096;SDS011;46977;50.936;6.908;2022-11-15T10:43:13;0.73;;;0.40;;
61096;SDS011;46977;50.936;6.908;2022-11-15T10:46:18;2.78;;;0.30;;
61096;SDS011;46977;50.936;6.908;2022-11-15T10:49:52;1.55;;;0.40;;
61096;SDS011;46977;50.936;6.908;2022-11-15T10:52:56;0.88;;;0.50;;
61096;SDS011;46977;50.936;6.908;2022-11-15T10:56:00;1.77;;;0.50;;
61096;SDS011;46977;50.936;6.908;2022-11-15T10:59:04;1.60;;;0.30;;
61096;SDS011;46977;50.936;6.908;2022-11-15T11:05:33;1.15;;;0.30;;
61096;SDS011;46977;50.936;6.908;2022-11-15T11:08:53;2.03;;;0.40;;
61096;SDS011;46977;50.936;6.908;2022-11-15T11:11:57;3.17;;;0.40;;
61096;SDS011;46977;50.936;6.908;2022-11-15T11:15:00;0.30;;;0.10;;
61096;SDS011;46977;50.936;6.908;2022-11-15T11:18:10;1.15;;;0.30;;
61096;SDS011;46977;50.936;6.908;2022-11-15T11:21:17;1.35;;;0.30;;
61096;SDS011;46977;50.936;6.908;2022-11-15T11:24:38;1.25;;;0.30;;
61096;SDS011;46977;50.936;6.908;2022-11-15T11:27:49;2.17;;;0.28;;
61096;SDS011;46977;50.936;6.908;2022-11-15T11:31:00;1.02;;;0.25;;
61096;SDS011;46977;50.936;6.908;2022-11-15T11:34:15;2.20;;;0.30;;
61096;SDS011;46977;50.936;6.908;2022-11-15T11:37:20;1.67;;;0.40;;
61096;SDS011;46977;50.936;6.908;2022-11-15T11:40:28;2.15;;;0.30;;
61096;SDS011;46977;50.936;6.908;2022-11-15T11:43:34;0.90;;;0.20;;
61096;SDS011;46977;50.936;6.908;2022-11-15T11:46:46;1.23;;;0.63;;
61096;SDS011;46977;50.936;6.908;2022-11-15T11:49:53;2.17;;;0.40;;
61096;SDS011;46977;50.936;6.908;2022-11-15T11:53:00;5.40;;;0.65;;
61096;SDS011;46977;50.936;6.908;2022-11-15T11:56:07;0.50;;;0.30;;
61096;SDS011;46977;50.936;6.908;2022-11-15T11:59:16;1.92;;;0.30;;
61096;SDS011;46977;50.936;6.908;2022-11-15T12:02:25;2.13;;;0.25;;
61096;SDS011;46977;50.936;6.908;2022-11-15T12:05:35;2.15;;;0.40;;
61096;SDS011;46977;50.936;6.908;2022-11-15T12:08:44;3.42;;;0.30;;
61096;SDS011;46977;50.936;6.908;2022-11-15T12:11:53;1.75;;;0.40;;
61096;SDS011;46977;50.936;6.908;2022-11-15T12:15:00;1.23;;;0.30;;
61096;SDS011;46977;50.936;6.908;2022-11-15T12:18:04;1.13;;;0.30;;
61096;SDS011;46977;50.936;6.908;2022-11-15T12:21:16;1.90;;;0.50;;
61096;SDS011;46977;50.936;6.908;2022-11-15T12:24:29;0.50;;;0.20;;
61096;SDS011;46977;50.936;6.908;2022-11-15T12:27:36;2.08;;;0.30;;
61096;SDS011;46977;50.936;6.908;2022-11-15T12:30:48;2.17;;;0.20;;
61096;SDS011;46977;50.936;6.908;2022-11-15T12:33:54;2.15;;;0.47;;
61096;SDS011;46977;50.936;6.908;2022-11-15T12:36:59;1.67;;;0.30;;
61096;SDS011;46977;50.936;6.908;2022-11-15T12:46:59;3.40;;;0.50;;
61096;SDS011;46977;50.936;6.908;2022-11-15T12:50:10;2.45;;;0.43;;
61096;SDS011;46977;50.936;6.908;2022-11-15T12:53:28;0.85;;;0.30;;
61096;SDS011;46977;50.936;6.908;2022-11-15T12:56:31;1.70;;;0.30;;
61096;SDS011;46977;50.936;6.908;2022-11-15T12:59:47;3.10;;;0.70;;
61096;SDS011;46977;50.936;6.908;2022-11-15T13:02:50;2.67;;;0.50;;
61096;SDS011;46977;50.936;6.908;2022-11-15T13:06:37;4.20;;;0.70;;
61096;SDS011;46977;50.936;6.908;2022-11-15T13:09:55;3.80;;;0.85;;
61096;SDS011;46977;50.936;6.908;2022-11-15T13:12:57;1.83;;;0.50;;
61096;SDS011;46977;50.936;6.908;2022-11-15T13:16:00;2.75;;;0.60;;
61096;SDS011;46977;50.936;6.908;2022-11-15T13:19:04;3.47;;;0.55;;
61096;SDS011;46977;50.936;6.908;2022-11-15T13:22:08;4.03;;;0.70;;
61096;SDS011;46977;50.936;6.908;2022-11-15T13:25:48;1.95;;;0.50;;
61096;SDS011;46977;50.936;6.908;2022-11-15T13:29:15;5.80;;;0.95;;
61096;SDS011;46977;50.936;6.908;2022-11-15T13:32:18;3.72;;;0.60;;
61096;SDS011;46977;50.936;6.908;2022-11-15T13:35:23;2.85;;;0.73;;
61096;SDS011;46977;50.936;6.908;2022-11-15T13:38:27;0.75;;;0.50;;
61096;SDS011;46977;50.936;6.908;2022-11-15T13:41:34;1.42;;;0.88;;
61096;SDS011;46977;50.936;6.908;2022-11-15T13:44:37;5.07;;;1.10;;
61096;SDS011;46977;50.936;6.908;2022-11-15T13:47:39;2.13;;;0.70;;
61096;SDS011;46977;50.936;6.908;2022-11-15T13:50:41;2.40;;;1.30;;
61096;SDS011;46977;50.936;6.908;2022-11-15T13:53:46;4.68;;;1.10;;
61096;SDS011;46977;50.936;6.908;2022-11-15T13:56:53;4.10;;;1.77;;
61096;SDS011;46977;50.936;6.908;2022-11-15T13:59:59;1.35;;;1.15;;
61096;SDS011;46977;50.936;6.908;2022-11-15T14:03:15;2.47;;;1.38;;
61096;SDS011;46977;50.936;6.908;2022-11-15T14:06:19;2.30;;;1.00;;
61096;SDS011;46977;50.936;6.908;2022-11-15T14:09:30;4.85;;;1.40;;
61096;SDS011;46977;50.936;6.908;2022-11-15T14:12:38;1.10;;;1.00;;
61096;SDS011;46977;50.936;6.908;2022-11-15T14:15:40;1.52;;;0.93;;
61096;SDS011;46977;50.936;6.908;2022-11-15T14:18:44;1.40;;;1.30;;
61096;SDS011;46977;50.936;6.908;2022-11-15T14:25:14;2.50;;;1.17;;
61096;SDS011;46977;50.936;6.908;2022-11-15T14:28:29;2.33;;;1.38;;
61096;SDS011;46977;50.936;6.908;2022-11-15T14:31:35;2.65;;;1.27;;
61096;SDS011;46977;50.936;6.908;2022-11-15T14:34:44;2.05;;;1.55;;
61096;SDS011;46977;50.936;6.908;2022-11-15T14:37:47;1.20;;;1.10;;
61096;SDS011;46977;50.936;6.908;2022-11-15T14:40:49;2.90;;;1.50;;
61096;SDS011;46977;50.936;6.908;2022-11-15T14:43:53;4.20;;;1.13;;
61096;SDS011;46977;50.936;6.908;2022-11-15T14:46:56;2.30;;;1.10;;
61096;SDS011;46977;50.936;6.908;2022-11-15T14:49:58;2.17;;;1.38;;
61096;SDS011;46977;50.936;6.908;2022-11-15T14:53:01;2.08;;;1.00;;
61096;SDS011;46977;50.936;6.908;2022-11-15T14:56:03;1.98;;;1.20;;
61096;SDS011;46977;50.936;6.908;2022-11-15T14:59:07;1.70;;;0.95;;
61096;SDS011;46977;50.936;6.908;2022-11-15T15:02:12;1.70;;;1.05;;
61096;SDS011;46977;50.936;6.908;2022-11-15T15:05:18;1.95;;;0.98;;
61096;SDS011;46977;50.936;6.908;2022-11-15T15:08:22;1.45;;;1.10;;
61096;SDS011;46977;50.936;6.908;2022-11-15T15:11:25;1.45;;;0.82;;
61096;SDS011;46977;50.936;6.908;2022-11-15T15:14:31;2.50;;;1.05;;
61096;SDS011;46977;50.936;6.908;2022-11-15T15:17:33;2.05;;;0.68;;
61096;SDS011;46977;50.936;6.908;2022-11-15T15:20:36;1.33;;;0.90;;
61096;SDS011;46977;50.936;6.908;2022-11-15T15:23:41;4.93;;;0.80;;
61096;SDS011;46977;50.936;6.908;2022-11-15T15:26:43;6.50;;;1.05;;
61096;SDS011;46977;50.936;6.908;2022-11-15T15:29:47;2.03;;;0.80;;
61096;SDS011;46977;50.936;6.908;2022-11-15T15:32:49;6.32;;;0.90;;
61096;SDS011;46977;50.936;6.908;2022-11-15T15:35:52;3.85;;;1.20;;
61096;SDS011;46977;50.936;6.908;2022-11-15T15:38:54;0.80;;;0.60;;
61096;SDS011;46977;50.936;6.908;2022-11-15T15:41:56;2.25;;;0.80;;
61096;SDS011;46977;50.936;6.908;2022-11-15T15:45:00;3.45;;;0.70;;
61096;SDS011;46977;50.936;6.908;2022-11-15T15:48:03;2.80;;;0.80;;
61096;SDS011;46977;50.936;6.908;2022-11-15T15:51:05;3.22;;;0.90;;
61096;SDS011;46977;50.936;6.908;2022-11-15T15:54:19;3.63;;;0.90;;
61096;SDS011;46977;50.936;6.908;2022-11-15T15:57:21;1.17;;;0.80;;
61096;SDS011;46977;50.936;6.908;2022-11-15T16:00:25;3.55;;;1.05;;
61096;SDS011;46977;50.936;6.908;2022-11-15T16:03:28;2.55;;;0.68;;
61096;SDS011;46977;50.936;6.908;2022-11-15T16:06:36;3.95;;;0.90;;
61096;SDS011;46977;50.936;6.908;2022-11-15T16:09:40;1.42;;;0.80;;
61096;SDS011;46977;50.936;6.908;2022-11-15T16:13:02;3.40;;;0.83;;
61096;SDS011;46977;50.936;6.908;2022-11-15T16:16:07;1.38;;;0.70;;
61096;SDS011;46977;50.936;6.908;2022-11-15T16:19:11;3.50;;;1.00;;
61096;SDS011;46977;50.936;6.908;2022-11-15T16:22:13;3.03;;;0.90;;
61096;SDS011;46977;50.936;6.908;2022-11-15T16:25:16;1.98;;;1.00;;
61096;SDS011;46977;50.936;6.908;2022-11-15T16:28:19;3.38;;;0.90;;
61096;SDS011;46977;50.936;6.908;2022-11-15T16:31:24;2.33;;;0.80;;
61096;SDS011;46977;50.936;6.908;2022-11-15T16:34:26;2.40;;;0.90;;
61096;SDS011;46977;50.936;6.908;2022-11-15T16:37:34;3.15;;;0.90;;
61096;SDS011;46977;50.936;6.908;2022-11-15T16:40:36;3.55;;;1.27;;
61096;SDS011;46977;50.936;6.908;2022-11-15T16:43:38;1.02;;;0.70;;
61096;SDS011;46977;50.936;6.908;2022-11-15T16:46:42;1.65;;;0.90;;
61096;SDS011;46977;50.936;6.908;2022-11-15T16:49:44;1.95;;;0.90;;
61096;SDS011;46977;50.936;6.908;2022-11-15T16:52:47;0.95;;;0.85;;
61096;SDS011;46977;50.936;6.908;2022-11-15T16:55:50;2.70;;;1.13;;
61096;SDS011;46977;50.936;6.908;2022-11-15T16:58:52;1.10;;;0.82;;
61096;SDS011;46977;50.936;6.908;2022-11-15T17:01:57;3.47;;;1.08;;
61096;SDS011;46977;50.936;6.908;2022-11-15T17:04:59;1.92;;;0.80;;
61096;SDS011;46977;50.936;6.908;2022-11-15T17:08:08;6.28;;;1.17;;
61096;SDS011;46977;50.936;6.908;2022-11-15T17:11:10;1.30;;;1.05;;
61096;SDS011;46977;50.936;6.908;2022-11-15T17:14:16;3.00;;;1.30;;
61096;SDS011;46977;50.936;6.908;2022-11-15T17:17:20;1.30;;;0.90;;
61096;SDS011;46977;50.936;6.908;2022-11-15T17:20:23;2.83;;;1.10;;
61096;SDS011;46977;50.936;6.908;2022-11-15T17:23:26;2.10;;;1.10;;
61096;SDS011;46977;50.936;6.908;2022-11-15T17:26:28;1.90;;;1.10;;
61096;SDS011;46977;50.936;6.908;2022-11-15T17:29:36;1.70;;;1.10;;
61096;SDS011;46977;50.936;6.908;2022-11-15T17:32:39;2.65;;;1.30;;
61096;SDS011;46977;50.936;6.908;2022-11-15T17:35:42;1.60;;;1.10;;
61096;SDS011;46977;50.936;6.908;2022-11-15T17:38:44;3.38;;;1.27;;
61096;SDS011;46977;50.936;6.908;2022-11-15T17:41:51;2.15;;;1.00;;
61096;SDS011;46977;50.936;6.908;2022-11-15T17:44:53;3.85;;;1.30;;
61096;SDS011;46977;50.936;6.908;2022-11-15T17:47:57;1.45;;;1.10;;
61096;SDS011;46977;50.936;6.908;2022-11-15T17:51:00;1.88;;;1.25;;
61096;SDS011;46977;50.936;6.908;2022-11-15T17:54:04;2.03;;;1.67;;
61096;SDS011;46977;50.936;6.908;2022-11-15T17:57:07;2.70;;;1.75;;
61096;SDS011;46977;50.936;6.908;2022-11-15T18:00:09;2.28;;;1.10;;
61096;SDS011;46977;50.936;6.908;2022-11-15T18:03:14;1.88;;;1.40;;
61096;SDS011;46977;50.936;6.908;2022-11-15T18:06:17;2.63;;;1.30;;
61096;SDS011;46977;50.936;6.908;2022-11-15T18:09:20;3.10;;;1.58;;
61096;SDS011;46977;50.936;6.908;2022-11-15T18:12:22;1.65;;;1.40;;
61096;SDS011;46977;50.936;6.908;2022-11-15T18:15:25;1.98;;;1.48;;
61096;SDS011;46977;50.936;6.908;2022-11-15T18:18:28;3.30;;;1.80;;
61096;SDS011;46977;50.936;6.908;2022-11-15T18:21:32;2.97;;;1.80;;
61096;SDS011;46977;50.936;6.908;2022-11-15T18:24:34;3.60;;;1.80;;
61096;SDS011;46977;50.936;6.908;2022-11-15T18:27:39;4.50;;;2.58;;
61096;SDS011;46977;50.936;6.908;2022-11-15T18:30:41;2.65;;;1.75;;
61096;SDS011;46977;50.936;6.908;2022-11-15T18:33:45;3.00;;;1.20;;
61096;SDS011;46977;50.936;6.908;2022-11-15T18:36:48;2.75;;;2.17;;
61096;SDS011;46977;50.936;6.908;2022-11-15T18:39:51;3.60;;;2.05;;
61096;SDS011;46977;50.936;6.908;2022-11-15T18:42:55;4.30;;;2.40;;
61096;SDS011;46977;50.936;6.908;2022-11-15T18:46:00;3.03;;;2.67;;
61096;SDS011;46977;50.936;6.908;2022-11-15T18:49:04;4.13;;;2.88;;
61096;SDS011;46977;50.936;6.908;2022-11-15T18:52:10;4.05;;;3.05;;
61096;SDS011;46977;50.936;6.908;2022-11-15T18:55:12;2.58;;;2.38;;
61096;SDS011;46977;50.936;6.908;2022-11-15T18:58:15;3.08;;;2.70;;
61096;SDS011;46977;50.936;6.908;2022-11-15T19:01:19;3.90;;;2.60;;
61096;SDS011;46977;50.936;6.908;2022-11-15T19:04:24;4.25;;;3.10;;
61096;SDS011;46977;50.936;6.908;2022-11-15T19:07:26;5.20;;;3.53;;
61096;SDS011;46977;50.936;6.908;2022-11-15T19:10:29;5.32;;;3.25;;
61096;SDS011;46977;50.936;6.908;2022-11-15T19:13:31;5.35;;;3.53;;
61096;SDS011;46977;50.936;6.908;2022-11-15T19:16:35;5.60;;;3.75;;
61096;SDS011;46977;50.936;6.908;2022-11-15T19:19:39;5.07;;;3.55;;
61096;SDS011;46977;50.936;6.908;2022-11-15T19:22:42;3.60;;;3.20;;
61096;SDS011;46977;50.936;6.908;2022-11-15T19:25:52;5.60;;;3.85;;
61096;SDS011;46977;50.936;6.908;2022-11-15T19:28:55;6.78;;;3.70;;
61096;SDS011;46977;50.936;6.908;2022-11-15T19:31:58;8.43;;;4.20;;
61096;SDS011;46977;50.936;6.908;2022-11-15T19:35:01;7.00;;;4.53;;
61096;SDS011;46977;50.936;6.908;2022-11-15T19:38:04;7.28;;;4.60;;
61096;SDS011;46977;50.936;6.908;2022-11-15T19:41:07;6.75;;;4.00;;
61096;SDS011;46977;50.936;6.908;2022-11-15T19:44:11;8.30;;;5.63;;
61096;SDS011;46977;50.936;6.908;2022-11-15T19:47:14;6.03;;;4.85;;
61096;SDS011;46977;50.936;6.908;2022-11-15T19:50:18;5.95;;;4.30;;
61096;SDS011;46977;50.936;6.908;2022-11-15T19:53:22;9.23;;;5.20;;
61096;SDS011;46977;50.936;6.908;2022-11-15T19:56:27;6.32;;;4.57;;
61096;SDS011;46977;50.936;6.908;2022-11-15T19:59:29;7.97;;;5.15;;
61096;SDS011;46977;50.936;6.908;2022-11-15T20:02:32;6.97;;;5.18;;
61096;SDS011;46977;50.936;6.908;2022-11-15T20:05:35;6.43;;;5.45;;
61096;SDS011;46977;50.936;6.908;2022-11-15T20:08:38;9.27;;;5.30;;
61096;SDS011;46977;50.936;6.908;2022-11-15T20:11:40;7.00;;;4.85;;
61096;SDS011;46977;50.936;6.908;2022-11-15T20:14:43;7.05;;;5.57;;